createdAt,value
2018-11-07T00:05:02.867Z,11.40
2018-11-07T00:07:31.671Z,11.30
2018-11-07T00:10:00.518Z,11.30
2018-11-07T00:12:29.675Z,11.30
2018-11-07T00:14:58.297Z,11.20
2018-11-07T00:17:27.051Z,11.20
2018-11-07T00:19:56.069Z,11.20
2018-11-07T00:22:24.787Z,11.20
2018-11-07T00:24:53.529Z,11.10
2018-11-07T00:27:22.464Z,11.10
2018-11-07T00:29:51.110Z,11.10
2018-11-07T00:32:19.743Z,11.10
2018-11-07T00:34:48.993Z,11.10
2018-11-07T00:37:17.716Z,11.10
2018-11-07T00:39:46.515Z,11.00
2018-11-07T00:42:15.379Z,11.00
2018-11-07T00:44:44.059Z,11.00
2018-11-07T00:47:12.643Z,10.90
2018-11-07T00:49:41.491Z,10.90
2018-11-07T00:52:10.367Z,10.90
2018-11-07T00:54:39.230Z,11.00
2018-11-07T00:57:08.675Z,11.00
2018-11-07T00:59:37.574Z,11.00
2018-11-07T01:02:06.427Z,10.90
2018-11-07T01:04:35.473Z,10.90
2018-11-07T01:07:04.202Z,10.90
2018-11-07T01:09:32.911Z,10.90
2018-11-07T01:12:01.755Z,10.90
2018-11-07T01:14:30.383Z,10.90
2018-11-07T01:16:59.079Z,10.80
2018-11-07T01:19:28.038Z,10.80
2018-11-07T01:21:56.719Z,10.80
2018-11-07T01:24:25.435Z,10.80
2018-11-07T01:26:54.462Z,10.80
2018-11-07T01:29:23.026Z,10.80
2018-11-07T01:31:51.787Z,10.80
2018-11-07T01:34:20.763Z,10.70
2018-11-07T01:36:49.536Z,10.70
2018-11-07T01:39:18.167Z,10.70
2018-11-07T01:41:47.177Z,10.70
2018-11-07T01:44:15.906Z,10.70
2018-11-07T01:46:44.590Z,10.70
2018-11-07T01:49:13.396Z,10.70
2018-11-07T01:51:42.059Z,10.60
2018-11-07T01:54:10.863Z,10.60
2018-11-07T01:56:39.635Z,10.60
2018-11-07T01:59:08.294Z,10.50
2018-11-07T02:01:36.995Z,10.40
2018-11-07T02:04:05.799Z,10.50
2018-11-07T02:06:34.420Z,10.40
2018-11-07T02:09:03.186Z,10.30
2018-11-07T02:11:31.921Z,10.30
2018-11-07T02:14:00.706Z,10.30
2018-11-07T02:16:29.386Z,10.30
2018-11-07T02:18:58.235Z,10.30
2018-11-07T02:21:26.987Z,10.20
2018-11-07T02:23:55.627Z,10.20
2018-11-07T02:26:24.435Z,10.20
2018-11-07T02:28:53.054Z,10.20
2018-11-07T02:31:21.627Z,10.10
2018-11-07T02:33:50.699Z,10.20
2018-11-07T02:36:19.412Z,10.10
2018-11-07T02:38:48.083Z,10.00
2018-11-07T02:41:17.091Z,10.00
2018-11-07T02:43:45.721Z,10.00
2018-11-07T02:46:14.502Z,10.00
2018-11-07T02:48:43.315Z,9.90
2018-11-07T02:51:11.983Z,9.90
2018-11-07T02:53:40.638Z,9.90
2018-11-07T02:56:09.831Z,9.80
2018-11-07T02:58:38.356Z,9.80
2018-11-07T03:01:07.042Z,9.80
2018-11-07T03:03:36.053Z,9.70
2018-11-07T03:06:05.017Z,9.80
2018-11-07T03:08:33.624Z,9.70
2018-11-07T03:11:03.876Z,9.70
2018-11-07T03:13:32.806Z,9.70
2018-11-07T03:16:01.395Z,9.70
2018-11-07T03:18:30.147Z,9.70
2018-11-07T03:20:58.775Z,9.70
2018-11-07T03:23:27.403Z,9.70
2018-11-07T03:25:56.391Z,9.70
2018-11-07T03:28:25.034Z,9.70
2018-11-07T03:30:53.619Z,9.60
2018-11-07T03:33:22.554Z,9.60
2018-11-07T03:35:51.195Z,9.60
2018-11-07T03:38:19.771Z,9.60
2018-11-07T03:40:48.530Z,9.60
2018-11-07T03:43:17.382Z,9.60
2018-11-07T03:45:51.472Z,9.60
2018-11-07T03:48:20.087Z,9.60
2018-11-07T03:50:48.686Z,9.50
2018-11-07T03:53:17.615Z,9.60
2018-11-07T03:55:46.380Z,9.50
2018-11-07T03:58:15.012Z,9.50
2018-11-07T04:00:43.780Z,9.50
2018-11-07T04:03:12.399Z,9.50
2018-11-07T04:05:41.054Z,9.50
2018-11-07T04:08:10.099Z,9.40
2018-11-07T04:10:38.788Z,9.40
2018-11-07T04:13:07.442Z,9.40
2018-11-07T04:15:36.310Z,9.30
2018-11-07T04:18:05.035Z,9.30
2018-11-07T04:20:33.703Z,9.30
2018-11-07T04:23:02.655Z,9.30
2018-11-07T04:25:31.623Z,9.30
2018-11-07T04:28:00.377Z,9.30
2018-11-07T04:30:29.108Z,9.30
2018-11-07T04:32:57.832Z,9.30
2018-11-07T04:35:26.467Z,9.30
2018-11-07T04:37:55.231Z,9.30
2018-11-07T04:40:23.771Z,9.30
2018-11-07T04:42:52.393Z,9.30
2018-11-07T04:45:21.457Z,9.30
2018-11-07T04:47:50.114Z,9.30
2018-11-07T04:50:18.789Z,9.20
2018-11-07T04:52:47.470Z,9.30
2018-11-07T04:55:16.094Z,9.20
2018-11-07T04:57:44.687Z,9.20
2018-11-07T05:00:13.812Z,9.10
2018-11-07T05:02:42.815Z,9.10
2018-11-07T05:05:11.655Z,9.00
2018-11-07T05:07:40.386Z,9.00
2018-11-07T05:10:10.013Z,9.00
2018-11-07T05:12:38.871Z,9.00
2018-11-07T05:15:08.280Z,8.90
2018-11-07T05:17:36.905Z,8.80
2018-11-07T05:20:07.137Z,8.80
2018-11-07T05:22:36.023Z,8.80
2018-11-07T05:25:04.801Z,8.80
2018-11-07T05:27:33.458Z,8.80
2018-11-07T05:30:02.178Z,8.80
2018-11-07T05:32:30.835Z,8.80
2018-11-07T05:34:59.427Z,8.80
2018-11-07T05:37:28.187Z,8.80
2018-11-07T05:39:56.795Z,8.80
2018-11-07T05:42:25.358Z,8.80
2018-11-07T05:44:54.151Z,8.70
2018-11-07T05:47:22.905Z,8.80
2018-11-07T05:49:51.498Z,8.80
2018-11-07T05:52:20.305Z,8.80
2018-11-07T05:54:49.022Z,8.80
2018-11-07T05:57:17.771Z,8.70
2018-11-07T05:59:46.595Z,8.80
2018-11-07T06:02:15.206Z,8.80
2018-11-07T06:04:43.935Z,8.80
2018-11-07T06:07:12.702Z,8.80
2018-11-07T06:09:41.435Z,8.80
2018-11-07T06:12:09.995Z,8.80
2018-11-07T06:14:38.808Z,8.80
2018-11-07T06:17:07.472Z,8.80
2018-11-07T06:19:36.141Z,8.80
2018-11-07T06:22:05.123Z,8.80
2018-11-07T06:24:33.920Z,8.80
2018-11-07T06:27:02.692Z,8.90
2018-11-07T06:29:31.469Z,8.90
2018-11-07T06:32:00.033Z,8.90
2018-11-07T06:34:28.732Z,8.90
2018-11-07T06:36:57.437Z,8.90
2018-11-07T06:39:26.274Z,8.90
2018-11-07T06:41:55.101Z,8.90
2018-11-07T06:44:23.920Z,8.90
2018-11-07T06:46:54.494Z,8.80
2018-11-07T06:49:23.060Z,8.90
2018-11-07T06:51:51.718Z,8.90
2018-11-07T06:54:20.321Z,8.90
2018-11-07T06:56:49.832Z,8.90
2018-11-07T06:59:18.603Z,8.90
2018-11-07T07:01:47.139Z,8.90
2018-11-07T07:04:15.743Z,8.90
2018-11-07T07:06:44.475Z,8.90
2018-11-07T07:09:13.262Z,8.90
2018-11-07T07:11:41.866Z,8.90
2018-11-07T07:14:10.752Z,9.00
2018-11-07T07:16:39.371Z,9.00
2018-11-07T07:19:08.030Z,9.00
2018-11-07T07:21:36.731Z,9.00
2018-11-07T07:24:05.567Z,9.00
2018-11-07T07:26:34.261Z,9.00
2018-11-07T07:29:02.934Z,9.00
2018-11-07T07:31:31.526Z,9.10
2018-11-07T07:34:00.631Z,9.10
2018-11-07T07:36:29.411Z,9.10
2018-11-07T07:38:58.151Z,9.00
2018-11-07T07:41:26.779Z,9.10
2018-11-07T07:43:55.637Z,9.10
2018-11-07T07:46:24.215Z,9.10
2018-11-07T07:48:52.815Z,9.10
2018-11-07T07:51:21.483Z,9.10
2018-11-07T07:53:50.027Z,9.10
2018-11-07T07:56:18.682Z,9.20
2018-11-07T07:58:47.482Z,9.30
2018-11-07T08:01:16.151Z,9.30
2018-11-07T08:03:44.863Z,9.30
2018-11-07T08:06:13.644Z,9.40
2018-11-07T08:08:42.352Z,9.40
2018-11-07T08:11:10.986Z,9.40
2018-11-07T08:13:39.972Z,9.40
2018-11-07T08:16:08.634Z,9.50
2018-11-07T08:18:37.309Z,9.50
2018-11-07T08:21:06.065Z,9.50
2018-11-07T08:23:34.777Z,9.50
2018-11-07T08:26:03.496Z,9.60
2018-11-07T08:28:32.173Z,9.70
2018-11-07T08:31:01.034Z,9.70
2018-11-07T08:33:29.767Z,9.70
2018-11-07T08:35:58.449Z,9.80
2018-11-07T08:38:27.199Z,9.80
2018-11-07T08:40:55.841Z,9.90
2018-11-07T08:43:24.684Z,9.90
2018-11-07T08:45:53.346Z,10.00
2018-11-07T08:48:22.092Z,10.00
2018-11-07T08:50:50.913Z,10.10
2018-11-07T08:53:19.782Z,10.10
2018-11-07T08:55:48.395Z,10.20
2018-11-07T08:58:17.081Z,10.20
2018-11-07T09:00:45.981Z,10.20
2018-11-07T09:03:14.719Z,10.20
2018-11-07T09:05:43.611Z,10.20
2018-11-07T09:08:12.272Z,10.30
2018-11-07T09:10:40.863Z,10.30
2018-11-07T09:13:09.652Z,10.30
2018-11-07T09:15:38.341Z,10.30
2018-11-07T09:18:07.124Z,10.30
2018-11-07T09:20:35.835Z,10.40
2018-11-07T09:23:04.603Z,10.40
2018-11-07T09:25:33.229Z,10.50
2018-11-07T09:28:02.020Z,10.50
2018-11-07T09:30:30.903Z,10.60
2018-11-07T09:32:59.749Z,10.60
2018-11-07T09:35:28.580Z,10.50
2018-11-07T09:37:57.415Z,10.60
2018-11-07T09:40:26.095Z,10.60
2018-11-07T09:42:54.938Z,10.70
2018-11-07T09:45:23.946Z,10.70
2018-11-07T09:47:52.630Z,10.70
2018-11-07T09:50:21.464Z,10.80
2018-11-07T09:52:50.154Z,10.80
2018-11-07T09:55:20.339Z,10.80
2018-11-07T09:57:49.107Z,10.90
2018-11-07T10:00:19.048Z,10.90
2018-11-07T10:02:47.851Z,10.90
2018-11-07T10:05:17.626Z,10.90
2018-11-07T10:07:46.520Z,10.80
2018-11-07T10:10:18.698Z,10.90
2018-11-07T10:12:47.615Z,10.90
2018-11-07T10:15:16.744Z,11.00
2018-11-07T10:17:45.635Z,11.00
2018-11-07T10:20:18.230Z,11.00
2018-11-07T10:22:47.883Z,10.90
2018-11-07T10:25:16.858Z,10.90
2018-11-07T10:27:46.098Z,10.90
2018-11-07T10:30:17.389Z,10.90
2018-11-07T10:32:46.970Z,10.90
2018-11-07T10:35:15.773Z,10.90
2018-11-07T10:37:44.659Z,10.90
2018-11-07T10:40:15.376Z,10.90
2018-11-07T10:42:44.530Z,10.90
2018-11-07T10:45:13.435Z,10.90
2018-11-07T10:47:42.983Z,10.90
2018-11-07T10:50:12.855Z,11.00
2018-11-07T10:52:52.703Z,11.10
2018-11-07T10:55:21.563Z,11.10
2018-11-07T10:57:50.331Z,11.20
2018-11-07T11:00:26.140Z,11.30
2018-11-07T11:03:00.163Z,11.30
2018-11-07T11:05:29.152Z,11.40
2018-11-07T11:10:40.611Z,11.60
2018-11-07T11:13:09.714Z,11.70
2018-11-07T11:15:38.683Z,11.80
2018-11-07T11:18:07.633Z,11.90
2018-11-07T11:20:36.975Z,12.00
2018-11-07T11:23:06.087Z,12.10
2018-11-07T11:25:35.343Z,12.10
2018-11-07T11:28:04.057Z,12.10
2018-11-07T11:30:32.859Z,12.20
2018-11-07T11:33:01.667Z,12.20
2018-11-07T11:35:30.671Z,12.20
2018-11-07T11:37:59.385Z,12.20
2018-11-07T11:40:28.590Z,12.30
2018-11-07T11:42:58.911Z,12.40
2018-11-07T11:48:08.042Z,15.00
2018-11-07T11:50:37.002Z,15.90
2018-11-07T11:53:07.263Z,15.90
2018-11-07T11:55:37.848Z,15.80
2018-11-07T11:58:07.489Z,15.20
2018-11-07T12:00:37.449Z,14.90
2018-11-07T12:03:06.987Z,15.20
2018-11-07T12:05:36.452Z,15.10
2018-11-07T12:10:45.827Z,14.60
2018-11-07T12:13:15.095Z,14.50
2018-11-07T12:15:45.327Z,14.80
2018-11-07T12:18:14.112Z,14.60
2018-11-07T12:20:43.305Z,14.90
2018-11-07T12:25:50.015Z,14.70
2018-11-07T12:28:19.159Z,14.20
2018-11-07T12:30:48.941Z,13.80
2018-11-07T12:33:18.383Z,13.40
2018-11-07T12:35:47.506Z,13.20
2018-11-07T12:38:16.487Z,12.90
2018-11-07T12:40:45.718Z,12.80
2018-11-07T12:43:14.435Z,12.70
2018-11-07T12:45:43.295Z,12.50
2018-11-07T12:48:12.581Z,12.60
2018-11-07T12:50:41.212Z,12.50
2018-11-07T12:53:10.622Z,13.00
2018-11-07T12:58:19.747Z,13.90
2018-11-07T13:00:48.821Z,13.70
2018-11-07T13:03:17.588Z,13.30
2018-11-07T13:05:46.694Z,12.90
2018-11-07T13:08:16.230Z,12.70
2018-11-07T13:10:45.556Z,12.70
2018-11-07T13:16:20.082Z,12.80
2018-11-07T13:18:57.763Z,12.70
2018-11-07T13:21:26.856Z,12.60
2018-11-07T13:23:56.181Z,12.40
2018-11-07T13:26:25.250Z,12.30
2018-11-07T13:28:54.328Z,12.20
2018-11-07T13:31:25.847Z,12.10
2018-11-07T13:34:00.666Z,12.00
2018-11-07T13:36:30.009Z,12.00
2018-11-07T13:38:59.194Z,12.00
2018-11-07T13:41:27.760Z,11.90
2018-11-07T13:43:56.909Z,11.80
2018-11-07T13:46:25.858Z,11.80
2018-11-07T13:48:54.700Z,11.70
2018-11-07T13:51:23.724Z,11.60
2018-11-07T13:53:52.695Z,11.60
2018-11-07T13:56:21.555Z,11.50
2018-11-07T13:58:50.590Z,11.50
2018-11-07T14:01:19.482Z,11.40
2018-11-07T14:03:49.010Z,11.40
2018-11-07T14:06:18.583Z,11.40
2018-11-07T14:08:47.508Z,11.30
2018-11-07T14:11:16.379Z,11.30
2018-11-07T14:13:45.291Z,11.20
2018-11-07T14:16:14.186Z,11.20
2018-11-07T14:18:43.151Z,11.10
2018-11-07T14:21:12.230Z,11.10
2018-11-07T14:23:42.260Z,11.00
2018-11-07T14:26:11.112Z,11.00
2018-11-07T14:28:41.030Z,10.90
2018-11-07T14:31:09.800Z,10.90
2018-11-07T14:33:38.682Z,10.90
2018-11-07T14:36:07.878Z,10.80
2018-11-07T14:38:36.829Z,10.80
2018-11-07T14:41:05.597Z,10.80
2018-11-07T14:43:34.651Z,10.70
2018-11-07T14:46:03.434Z,10.70
2018-11-07T14:48:32.178Z,10.70
2018-11-07T14:51:01.214Z,10.60
2018-11-07T14:53:30.218Z,10.60
2018-11-07T14:55:59.061Z,10.50
2018-11-07T14:58:28.209Z,10.50
2018-11-07T15:00:57.036Z,10.50
2018-11-07T15:03:25.939Z,10.40
2018-11-07T15:05:54.911Z,10.40
2018-11-07T15:08:23.784Z,10.40
2018-11-07T15:10:52.467Z,10.40
2018-11-07T15:13:21.343Z,10.30
2018-11-07T15:15:50.127Z,10.30
2018-11-07T15:18:18.939Z,10.30
2018-11-07T15:20:47.936Z,10.30
2018-11-07T15:23:16.624Z,10.30
2018-11-07T15:25:45.890Z,10.20
2018-11-07T15:28:15.091Z,10.20
2018-11-07T15:30:44.323Z,10.20
2018-11-07T15:33:13.211Z,10.10
2018-11-07T15:35:42.410Z,10.10
2018-11-07T15:38:11.315Z,10.10
2018-11-07T15:40:39.980Z,10.10
2018-11-07T15:43:09.036Z,10.10
2018-11-07T15:45:37.866Z,10.10
2018-11-07T15:48:07.504Z,10.10
2018-11-07T15:50:42.806Z,10.00
2018-11-07T15:53:11.875Z,10.00
2018-11-07T15:55:40.991Z,10.00
2018-11-07T15:58:09.843Z,10.00
2018-11-07T16:00:38.583Z,10.00
2018-11-07T16:03:07.255Z,10.00
2018-11-07T16:05:36.426Z,10.00
2018-11-07T16:08:05.843Z,10.00
2018-11-07T16:10:34.927Z,10.00
2018-11-07T16:13:03.844Z,10.00
2018-11-07T16:15:32.890Z,10.00
2018-11-07T16:18:01.635Z,10.00
2018-11-07T16:20:30.648Z,10.00
2018-11-07T16:22:59.466Z,10.00
2018-11-07T16:25:28.441Z,10.10
2018-11-07T16:27:57.617Z,10.10
2018-11-07T16:30:26.599Z,10.10
2018-11-07T16:32:55.297Z,10.10
2018-11-07T16:35:24.462Z,10.10
2018-11-07T16:37:53.259Z,10.10
2018-11-07T16:40:22.664Z,10.10
2018-11-07T16:42:52.426Z,10.10
2018-11-07T16:45:21.347Z,10.10
2018-11-07T16:47:50.083Z,10.10
2018-11-07T16:50:19.345Z,10.10
2018-11-07T16:52:48.234Z,10.10
2018-11-07T16:55:17.029Z,10.10
2018-11-07T16:57:46.461Z,10.10
2018-11-07T17:00:21.318Z,10.10
2018-11-07T17:02:50.646Z,10.10
2018-11-07T17:05:19.964Z,10.10
2018-11-07T17:07:48.884Z,10.10
2018-11-07T17:10:19.257Z,10.10
2018-11-07T17:12:48.855Z,10.00
2018-11-07T17:15:17.471Z,10.00
2018-11-07T17:17:46.389Z,10.00
2018-11-07T17:20:15.810Z,10.10
2018-11-07T17:22:44.960Z,10.10
2018-11-07T17:25:16.025Z,10.10
2018-11-07T17:27:44.993Z,10.00
2018-11-07T17:30:14.645Z,10.10
2018-11-07T17:32:43.467Z,10.10
2018-11-07T17:35:13.585Z,10.10
2018-11-07T17:37:42.710Z,10.00
2018-11-07T17:40:15.783Z,10.00
2018-11-07T17:42:44.657Z,10.00
2018-11-07T17:45:15.271Z,10.00
2018-11-07T17:47:44.459Z,10.00
2018-11-07T17:50:14.317Z,10.00
2018-11-07T17:52:43.097Z,10.00
2018-11-07T17:55:12.947Z,10.00
2018-11-07T17:57:41.851Z,10.00
2018-11-07T18:00:13.523Z,10.00
2018-11-07T18:02:42.453Z,9.90
2018-11-07T18:05:11.270Z,9.90
2018-11-07T18:07:39.937Z,9.90
2018-11-07T18:10:11.341Z,9.80
2018-11-07T18:12:39.927Z,9.80
2018-11-07T18:15:09.082Z,9.70
2018-11-07T18:17:37.957Z,9.70
2018-11-07T18:20:08.127Z,9.60
2018-11-07T18:22:36.730Z,9.60
2018-11-07T18:25:05.891Z,9.60
2018-11-07T18:27:34.505Z,9.60
2018-11-07T18:30:03.900Z,9.50
2018-11-07T18:32:32.637Z,9.50
2018-11-07T18:35:02.548Z,9.50
2018-11-07T18:37:31.205Z,9.60
2018-11-07T18:40:02.965Z,9.60
2018-11-07T18:42:31.675Z,9.70
2018-11-07T18:45:00.207Z,9.70
2018-11-07T18:47:29.021Z,9.70
2018-11-07T18:49:57.697Z,9.70
2018-11-07T18:52:26.294Z,9.70
2018-11-07T18:54:55.232Z,9.80
2018-11-07T18:57:24.187Z,9.80
2018-11-07T18:59:53.863Z,9.80
2018-11-07T19:02:22.583Z,9.80
2018-11-07T19:04:51.439Z,9.90
2018-11-07T19:07:20.031Z,10.00
2018-11-07T19:09:48.791Z,10.00
2018-11-07T19:12:17.595Z,10.00
2018-11-07T19:14:46.195Z,10.00
2018-11-07T19:17:14.994Z,10.00
2018-11-07T19:19:43.863Z,10.10
2018-11-07T19:22:12.467Z,10.10
2018-11-07T19:24:41.303Z,10.10
2018-11-07T19:27:12.456Z,10.10
2018-11-07T19:29:41.259Z,10.10
2018-11-07T19:32:10.251Z,10.10
2018-11-07T19:34:39.099Z,10.20
2018-11-07T19:37:07.845Z,10.20
2018-11-07T19:39:36.651Z,10.20
2018-11-07T19:42:05.461Z,10.20
2018-11-07T19:44:34.167Z,10.20
2018-11-07T19:47:03.539Z,10.20
2018-11-07T19:49:32.345Z,10.20
2018-11-07T19:52:01.234Z,10.20
2018-11-07T19:54:30.303Z,10.30
2018-11-07T19:56:59.132Z,10.30
2018-11-07T19:59:27.860Z,10.30
2018-11-07T20:01:56.912Z,10.30
2018-11-07T20:04:25.824Z,10.30
2018-11-07T20:06:55.135Z,10.30
2018-11-07T20:09:23.903Z,10.30
2018-11-07T20:11:52.817Z,10.30
2018-11-07T20:14:21.626Z,10.20
2018-11-07T20:16:50.632Z,10.30
2018-11-07T20:19:19.373Z,10.30
2018-11-07T20:21:48.240Z,10.30
2018-11-07T20:24:17.707Z,10.30
2018-11-07T20:29:22.924Z,10.20
2018-11-07T20:31:51.772Z,10.20
2018-11-07T20:34:28.339Z,10.20
2018-11-07T20:36:58.075Z,10.20
2018-11-07T20:39:27.763Z,10.20
2018-11-07T20:41:57.838Z,10.20
2018-11-07T20:44:26.715Z,10.20
2018-11-07T20:46:55.618Z,10.20
2018-11-07T20:49:24.431Z,10.10
2018-11-07T20:51:53.275Z,10.20
2018-11-07T20:54:22.748Z,10.20
2018-11-07T20:56:51.333Z,10.20
2018-11-07T20:59:20.092Z,10.20
2018-11-07T21:01:49.244Z,10.20
2018-11-07T21:04:18.119Z,10.30
2018-11-07T21:06:46.927Z,10.30
2018-11-07T21:09:15.876Z,10.30
2018-11-07T21:11:44.579Z,10.20
2018-11-07T21:14:13.493Z,10.20
2018-11-07T21:16:42.338Z,10.20
2018-11-07T21:19:11.223Z,10.20
2018-11-07T21:21:40.047Z,10.20
2018-11-07T21:24:09.019Z,10.30
2018-11-07T21:26:37.838Z,10.30
2018-11-07T21:29:06.631Z,10.30
2018-11-07T21:31:35.447Z,10.30
2018-11-07T21:34:10.503Z,10.30
2018-11-07T21:36:39.603Z,10.30
2018-11-07T21:39:09.903Z,10.30
2018-11-07T21:41:38.686Z,10.30
2018-11-07T21:44:07.568Z,10.30
2018-11-07T21:46:36.263Z,10.30
2018-11-07T21:49:05.192Z,10.30
2018-11-07T21:51:34.192Z,10.30
2018-11-07T21:54:02.871Z,10.30
2018-11-07T21:56:31.677Z,10.20
2018-11-07T21:59:00.685Z,10.20
2018-11-07T22:01:29.442Z,10.20
2018-11-07T22:03:59.149Z,10.20
2018-11-07T22:06:27.999Z,10.30
2018-11-07T22:08:56.775Z,10.20
2018-11-07T22:11:25.500Z,10.20
2018-11-07T22:13:54.288Z,10.20
2018-11-07T22:16:22.964Z,10.20
2018-11-07T22:18:51.731Z,10.20
2018-11-07T22:21:20.678Z,10.20
2018-11-07T22:23:49.288Z,10.20
2018-11-07T22:26:17.935Z,10.20
2018-11-07T22:28:47.323Z,10.20
2018-11-07T22:31:16.003Z,10.30
2018-11-07T22:33:44.827Z,10.30
2018-11-07T22:36:13.852Z,10.30
2018-11-07T22:38:42.471Z,10.30
2018-11-07T22:41:11.554Z,10.30
2018-11-07T22:43:40.518Z,10.40
2018-11-07T22:46:09.375Z,10.30
2018-11-07T22:48:38.167Z,10.40
2018-11-07T22:51:07.069Z,10.30
2018-11-07T22:53:35.895Z,10.30
2018-11-07T22:56:04.828Z,10.30
2018-11-07T22:58:33.624Z,10.40
2018-11-07T23:01:07.767Z,10.30
2018-11-07T23:03:36.949Z,10.40
2018-11-07T23:06:10.086Z,10.40
2018-11-07T23:08:39.004Z,10.40
2018-11-07T23:11:08.495Z,10.40
2018-11-07T23:13:37.101Z,10.30
2018-11-07T23:16:06.177Z,10.30
2018-11-07T23:18:34.924Z,10.30
2018-11-07T23:21:03.648Z,10.30
2018-11-07T23:23:33.614Z,10.30
2018-11-07T23:26:02.343Z,10.30
2018-11-07T23:28:31.527Z,10.30
2018-11-07T23:31:00.675Z,10.30
2018-11-07T23:33:29.335Z,10.30
2018-11-07T23:35:58.197Z,10.40
2018-11-07T23:38:27.107Z,10.40
2018-11-07T23:40:55.671Z,10.40
2018-11-07T23:43:24.393Z,10.40
2018-11-07T23:45:53.566Z,10.40
2018-11-07T23:48:22.215Z,10.40
2018-11-07T23:50:51.619Z,10.40
2018-11-07T23:53:20.631Z,10.40
2018-11-07T23:55:49.266Z,10.40
2018-11-07T23:58:17.898Z,10.40
